createdAt,value
2023-03-07T00:01:00.213Z,6.47
2023-03-07T00:03:26.800Z,6.81
2023-03-07T00:06:05.623Z,6.76
2023-03-07T00:08:32.739Z,5.97
2023-03-07T00:11:03.431Z,5.87
2023-03-07T00:13:31.749Z,7.19
2023-03-07T00:16:06.059Z,7.01
2023-03-07T00:18:33.093Z,7.07
2023-03-07T00:21:01.001Z,6.82
2023-03-07T00:23:27.412Z,6.13
2023-03-07T00:25:58.935Z,6.45
2023-03-07T00:28:25.340Z,6.91
2023-03-07T00:30:52.149Z,7.00
2023-03-07T00:33:18.559Z,6.36
2023-03-07T00:35:44.994Z,6.94
2023-03-07T00:38:11.538Z,6.69
2023-03-07T00:40:37.872Z,7.05
2023-03-07T00:43:04.212Z,6.30
2023-03-07T00:45:30.623Z,6.24
2023-03-07T00:47:57.712Z,6.35
2023-03-07T00:50:24.162Z,5.95
2023-03-07T00:52:50.469Z,6.67
2023-03-07T00:55:16.946Z,6.85
2023-03-07T00:57:43.295Z,6.90
2023-03-07T01:00:10.907Z,7.22
2023-03-07T01:02:37.301Z,6.59
2023-03-07T01:05:04.331Z,6.53
2023-03-07T01:07:30.650Z,7.09
2023-03-07T01:09:57.019Z,6.80
2023-03-07T01:12:23.366Z,6.71
2023-03-07T01:14:50.941Z,7.37
2023-03-07T01:17:17.393Z,6.73
2023-03-07T01:19:43.777Z,7.08
2023-03-07T01:22:10.103Z,6.87
2023-03-07T01:24:36.423Z,7.14
2023-03-07T01:27:02.822Z,6.60
2023-03-07T01:29:29.243Z,6.97
2023-03-07T01:31:55.629Z,7.00
2023-03-07T01:34:22.978Z,6.98
2023-03-07T01:36:49.391Z,7.19
2023-03-07T01:39:17.161Z,7.54
2023-03-07T01:41:44.771Z,7.27
2023-03-07T01:44:23.326Z,7.35
2023-03-07T01:46:50.276Z,7.29
2023-03-07T01:49:28.730Z,7.11
2023-03-07T01:52:18.620Z,7.13
2023-03-07T01:54:51.872Z,6.44
2023-03-07T01:57:20.617Z,6.98
2023-03-07T01:59:50.914Z,7.25
2023-03-07T02:02:22.559Z,7.59
2023-03-07T02:04:59.496Z,7.03
2023-03-07T02:07:31.819Z,6.82
2023-03-07T02:09:58.621Z,6.48
2023-03-07T02:12:25.034Z,6.08
2023-03-07T02:14:52.337Z,6.35
2023-03-07T02:17:19.095Z,7.19
2023-03-07T02:20:02.719Z,6.64
2023-03-07T02:22:29.518Z,6.42
2023-03-07T02:25:08.150Z,7.18
2023-03-07T02:27:37.107Z,6.92
2023-03-07T02:30:05.688Z,7.30
2023-03-07T02:32:32.115Z,6.87
2023-03-07T02:34:58.481Z,7.26
2023-03-07T02:37:38.415Z,7.30
2023-03-07T02:40:08.196Z,7.23
2023-03-07T02:42:38.499Z,6.82
2023-03-07T02:45:09.968Z,6.46
2023-03-07T02:47:36.502Z,7.17
2023-03-07T02:50:03.761Z,6.97
2023-03-07T02:52:30.376Z,6.73
2023-03-07T02:54:58.412Z,7.38
2023-03-07T02:57:24.796Z,6.61
2023-03-07T02:59:51.183Z,7.03
2023-03-07T03:02:17.587Z,7.02
2023-03-07T03:04:44.027Z,6.65
2023-03-07T03:07:10.654Z,7.06
2023-03-07T03:09:37.168Z,6.96
2023-03-07T03:12:03.747Z,7.08
2023-03-07T03:14:30.258Z,7.03
2023-03-07T03:16:56.664Z,6.81
2023-03-07T03:19:22.987Z,6.69
2023-03-07T03:21:49.968Z,6.86
2023-03-07T03:24:16.445Z,6.30
2023-03-07T03:26:42.859Z,7.09
2023-03-07T03:29:09.800Z,6.61
2023-03-07T03:31:36.391Z,6.45
2023-03-07T03:34:03.487Z,6.81
2023-03-07T03:36:29.874Z,6.93
2023-03-07T03:38:58.082Z,6.27
2023-03-07T03:41:24.995Z,6.95
2023-03-07T03:43:51.742Z,7.22
2023-03-07T03:46:19.693Z,7.08
2023-03-07T03:48:54.597Z,7.30
2023-03-07T03:51:22.656Z,6.84
2023-03-07T03:53:49.843Z,6.78
2023-03-07T03:56:18.882Z,6.77
2023-03-07T03:58:48.641Z,6.35
2023-03-07T04:01:15.446Z,6.35
2023-03-07T04:03:45.121Z,6.59
2023-03-07T04:06:18.580Z,6.44
2023-03-07T04:08:47.422Z,6.18
2023-03-07T04:11:14.368Z,6.05
2023-03-07T04:13:41.299Z,6.76
2023-03-07T04:16:08.086Z,6.79
2023-03-07T04:18:35.144Z,6.78
2023-03-07T04:21:01.721Z,6.83
2023-03-07T04:23:29.002Z,6.65
2023-03-07T04:25:57.868Z,6.84
2023-03-07T04:28:26.898Z,5.90
2023-03-07T04:30:53.756Z,6.67
2023-03-07T04:33:20.783Z,6.80
2023-03-07T04:35:47.267Z,6.50
2023-03-07T04:38:14.384Z,6.79
2023-03-07T04:40:40.798Z,6.85
2023-03-07T04:43:07.698Z,6.29
2023-03-07T04:45:37.113Z,6.71
2023-03-07T04:48:04.255Z,6.25
2023-03-07T04:50:30.872Z,6.57
2023-03-07T04:52:57.251Z,6.59
2023-03-07T04:55:23.639Z,6.41
2023-03-07T04:57:51.987Z,5.98
2023-03-07T05:00:19.554Z,6.75
2023-03-07T05:02:46.661Z,6.87
2023-03-07T05:05:13.078Z,6.78
2023-03-07T05:07:39.430Z,6.37
2023-03-07T05:10:06.467Z,6.88
2023-03-07T05:12:32.859Z,6.41
2023-03-07T05:15:00.736Z,6.80
2023-03-07T05:17:27.103Z,6.21
2023-03-07T05:19:56.362Z,6.04
2023-03-07T05:22:24.337Z,6.01
2023-03-07T05:24:53.114Z,6.02
2023-03-07T05:27:19.566Z,6.55
2023-03-07T05:29:46.205Z,6.10
2023-03-07T05:32:12.635Z,5.82
2023-03-07T05:34:39.194Z,6.39
2023-03-07T05:37:05.676Z,6.53
2023-03-07T05:39:32.156Z,5.86
2023-03-07T05:41:58.542Z,5.91
2023-03-07T05:44:34.264Z,6.62
2023-03-07T05:47:00.781Z,6.49
2023-03-07T05:49:27.194Z,6.45
2023-03-07T05:52:07.061Z,6.39
2023-03-07T05:54:33.609Z,5.80
2023-03-07T05:56:59.985Z,6.20
2023-03-07T05:59:26.377Z,6.26
2023-03-07T06:01:52.793Z,6.37
2023-03-07T06:04:19.227Z,6.40
2023-03-07T06:06:57.781Z,5.52
2023-03-07T06:09:28.081Z,6.25
2023-03-07T06:11:54.583Z,6.69
2023-03-07T06:14:21.264Z,6.26
2023-03-07T06:16:47.705Z,6.51
2023-03-07T06:19:16.978Z,6.81
2023-03-07T06:21:44.191Z,7.10
2023-03-07T06:24:13.000Z,6.22
2023-03-07T06:26:42.420Z,6.43
2023-03-07T06:29:08.823Z,6.01
2023-03-07T06:31:35.386Z,5.74
2023-03-07T06:34:01.866Z,6.93
2023-03-07T06:36:28.399Z,6.36
2023-03-07T06:38:55.174Z,6.23
2023-03-07T06:41:24.494Z,6.87
2023-03-07T06:43:52.820Z,6.39
2023-03-07T06:46:22.528Z,6.35
2023-03-07T06:48:57.665Z,5.94
2023-03-07T06:51:38.167Z,6.78
2023-03-07T06:54:07.096Z,6.00
2023-03-07T06:56:35.770Z,6.52
2023-03-07T06:59:02.228Z,6.41
2023-03-07T07:01:35.700Z,6.29
2023-03-07T07:04:04.978Z,6.45
2023-03-07T07:06:31.860Z,6.12
2023-03-07T07:08:59.372Z,7.01
2023-03-07T07:11:26.965Z,6.33
2023-03-07T07:13:53.824Z,7.02
2023-03-07T07:16:20.618Z,6.42
2023-03-07T07:18:49.484Z,6.45
2023-03-07T07:21:29.960Z,6.11
2023-03-07T07:23:57.593Z,6.40
2023-03-07T07:29:31.734Z,5.89
2023-03-07T07:32:29.559Z,5.97
2023-03-07T07:34:59.225Z,6.29
2023-03-07T07:37:26.773Z,6.90
2023-03-07T07:39:53.247Z,6.53
2023-03-07T07:42:19.703Z,5.97
2023-03-07T07:44:59.104Z,6.44
2023-03-07T07:47:27.907Z,6.27
2023-03-07T07:49:54.452Z,6.43
2023-03-07T07:52:23.134Z,6.36
2023-03-07T07:54:49.821Z,5.63
2023-03-07T07:57:16.361Z,6.68
2023-03-07T07:59:42.879Z,6.51
2023-03-07T08:02:13.737Z,6.75
2023-03-07T08:04:43.185Z,6.35
2023-03-07T08:07:09.703Z,6.47
2023-03-07T08:09:36.345Z,6.08
2023-03-07T08:12:17.110Z,6.51
2023-03-07T08:14:43.936Z,6.43
2023-03-07T08:17:21.882Z,6.32
2023-03-07T08:19:53.587Z,6.08
2023-03-07T08:22:21.089Z,6.32
2023-03-07T08:24:47.658Z,6.25
2023-03-07T08:27:14.330Z,6.64
2023-03-07T08:29:47.912Z,6.26
2023-03-07T08:32:15.396Z,6.40
2023-03-07T08:34:42.147Z,6.73
2023-03-07T08:37:10.689Z,6.52
2023-03-07T08:39:41.302Z,6.11
2023-03-07T08:42:13.853Z,5.96
2023-03-07T08:44:42.919Z,6.18
2023-03-07T08:47:11.355Z,6.11
2023-03-07T08:49:38.066Z,6.38
2023-03-07T08:52:04.865Z,7.06
2023-03-07T08:54:32.423Z,6.78
2023-03-07T08:57:00.391Z,6.88
2023-03-07T08:59:27.182Z,6.61
2023-03-07T09:01:57.478Z,6.39
2023-03-07T09:04:24.351Z,7.36
2023-03-07T09:06:55.612Z,6.70
2023-03-07T09:09:22.735Z,6.29
2023-03-07T09:11:50.377Z,6.19
2023-03-07T09:14:16.927Z,7.04
2023-03-07T09:19:26.588Z,6.70
2023-03-07T09:21:53.324Z,6.88
2023-03-07T09:24:19.820Z,6.76
2023-03-07T09:26:50.434Z,7.00
2023-03-07T09:29:16.981Z,6.87
2023-03-07T09:31:49.294Z,6.80
2023-03-07T09:34:18.652Z,6.54
2023-03-07T09:36:45.412Z,6.35
2023-03-07T09:39:17.349Z,6.91
2023-03-07T09:42:23.593Z,7.47
2023-03-07T09:45:11.463Z,7.90
2023-03-07T09:48:04.341Z,7.92
2023-03-07T09:51:10.295Z,7.20
2023-03-07T09:53:50.932Z,6.97
2023-03-07T09:56:47.332Z,5.84
2023-03-07T09:59:24.095Z,5.69
2023-03-07T10:02:23.126Z,6.61
2023-03-07T10:04:55.943Z,5.66
2023-03-07T10:07:25.663Z,5.18
2023-03-07T10:09:58.757Z,5.99
2023-03-07T10:12:43.737Z,5.76
2023-03-07T10:15:54.959Z,6.33
2023-03-07T10:18:50.883Z,5.35
2023-03-07T10:21:47.758Z,5.15
2023-03-07T10:24:29.843Z,5.79
2023-03-07T10:26:56.170Z,6.35
2023-03-07T10:29:27.167Z,5.95
2023-03-07T10:32:14.117Z,6.52
2023-03-07T10:34:40.950Z,5.93
2023-03-07T10:37:16.284Z,6.85
2023-03-07T10:39:54.184Z,5.79
2023-03-07T10:42:42.117Z,5.57
2023-03-07T10:45:18.926Z,5.92
2023-03-07T10:47:45.720Z,5.47
2023-03-07T10:50:37.243Z,6.32
2023-03-07T10:53:09.446Z,6.56
2023-03-07T10:55:38.331Z,6.18
2023-03-07T10:58:25.988Z,5.83
2023-03-07T11:01:16.068Z,6.29
2023-03-07T11:03:58.628Z,6.24
2023-03-07T11:06:29.151Z,5.13
2023-03-07T11:09:24.267Z,6.12
2023-03-07T11:12:30.712Z,6.10
2023-03-07T11:15:10.692Z,5.75
2023-03-07T11:17:45.631Z,6.30
2023-03-07T11:20:38.531Z,6.15
2023-03-07T11:23:14.442Z,6.48
2023-03-07T11:25:45.541Z,5.90
2023-03-07T11:28:40.837Z,6.42
2023-03-07T11:31:18.414Z,5.94
2023-03-07T11:33:59.008Z,6.19
2023-03-07T11:36:37.026Z,6.26
2023-03-07T11:39:31.397Z,6.20
2023-03-07T11:42:04.584Z,5.19
2023-03-07T11:44:34.534Z,6.08
2023-03-07T11:47:22.513Z,5.97
2023-03-07T11:50:17.366Z,5.47
2023-03-07T11:52:50.154Z,6.31
2023-03-07T11:55:43.689Z,6.07
2023-03-07T11:58:54.808Z,6.31
2023-03-07T12:01:36.850Z,5.61
2023-03-07T12:04:12.009Z,5.88
2023-03-07T12:07:14.368Z,6.28
2023-03-07T12:10:07.085Z,5.64
2023-03-07T12:13:18.548Z,6.42
2023-03-07T12:16:06.052Z,5.71
2023-03-07T12:19:03.363Z,6.39
2023-03-07T12:22:02.919Z,6.35
2023-03-07T12:25:11.261Z,5.84
2023-03-07T12:28:05.227Z,5.40
2023-03-07T12:31:39.283Z,6.20
2023-03-07T12:34:26.268Z,5.38
2023-03-07T12:37:36.451Z,6.41
2023-03-07T12:40:14.741Z,5.68
2023-03-07T12:43:02.631Z,6.00
2023-03-07T12:46:24.448Z,5.33
2023-03-07T12:49:37.886Z,6.26
2023-03-07T12:52:29.007Z,5.42
2023-03-07T12:55:08.363Z,5.58
2023-03-07T12:57:42.312Z,5.53
2023-03-07T13:03:55.380Z,6.03
2023-03-07T13:06:23.237Z,5.79
2023-03-07T13:08:53.280Z,5.97
2023-03-07T13:11:26.857Z,6.04
2023-03-07T13:14:04.475Z,5.55
2023-03-07T13:16:45.457Z,5.55
2023-03-07T13:19:30.812Z,6.30
2023-03-07T13:25:26.014Z,6.08
2023-03-07T13:28:33.952Z,5.39
2023-03-07T13:31:30.942Z,5.72
2023-03-07T13:34:50.518Z,6.24
2023-03-07T13:38:28.486Z,6.24
2023-03-07T13:41:03.574Z,5.34
2023-03-07T13:43:48.257Z,6.26
2023-03-07T13:46:38.294Z,6.03
2023-03-07T13:49:20.219Z,5.68
2023-03-07T13:52:31.938Z,6.20
2023-03-07T13:55:01.515Z,5.17
2023-03-07T13:57:39.164Z,5.73
2023-03-07T14:03:37.980Z,5.04
2023-03-07T14:06:24.185Z,6.06
2023-03-07T14:08:54.870Z,6.07
2023-03-07T14:11:53.443Z,6.04
2023-03-07T14:14:45.970Z,5.97
2023-03-07T14:17:20.913Z,5.89
2023-03-07T14:20:11.520Z,5.28
2023-03-07T14:23:01.907Z,5.30
2023-03-07T14:25:33.655Z,4.75
2023-03-07T14:28:03.140Z,5.07
2023-03-07T14:30:32.678Z,5.51
2023-03-07T14:33:00.955Z,5.26
2023-03-07T14:35:35.780Z,5.15
2023-03-07T14:38:05.804Z,5.14
2023-03-07T14:40:59.820Z,5.35
2023-03-07T14:43:38.463Z,5.39
2023-03-07T14:46:24.958Z,5.49
2023-03-07T14:48:56.075Z,5.58
2023-03-07T14:51:26.562Z,4.82
2023-03-07T14:53:53.424Z,5.66
2023-03-07T14:56:24.949Z,4.77
2023-03-07T14:58:54.678Z,5.32
2023-03-07T15:01:21.689Z,5.46
2023-03-07T15:03:54.030Z,5.57
2023-03-07T15:06:24.007Z,5.52
2023-03-07T15:08:52.326Z,6.08
2023-03-07T15:11:44.641Z,6.23
2023-03-07T15:14:20.038Z,6.02
2023-03-07T15:16:50.813Z,6.18
2023-03-07T15:19:20.135Z,6.18
2023-03-07T15:21:58.402Z,6.25
2023-03-07T15:24:32.213Z,5.97
2023-03-07T15:27:00.125Z,5.72
2023-03-07T15:29:29.802Z,5.42
2023-03-07T15:32:08.824Z,6.11
2023-03-07T15:34:39.700Z,5.08
2023-03-07T15:37:32.855Z,6.03
2023-03-07T15:40:25.003Z,5.69
2023-03-07T15:42:54.442Z,6.27
2023-03-07T15:45:33.263Z,5.86
2023-03-07T15:48:11.092Z,5.44
2023-03-07T15:50:37.842Z,5.15
2023-03-07T15:53:10.219Z,6.03
2023-03-07T15:55:38.874Z,5.72
2023-03-07T15:58:15.565Z,5.65
2023-03-07T16:01:15.870Z,6.12
2023-03-07T16:04:27.334Z,5.58
2023-03-07T16:06:56.952Z,5.71
2023-03-07T16:09:23.424Z,5.84
2023-03-07T16:11:49.939Z,5.57
2023-03-07T16:14:29.176Z,6.00
2023-03-07T16:16:59.664Z,6.06
2023-03-07T16:19:26.747Z,5.97
2023-03-07T16:21:53.513Z,6.06
2023-03-07T16:24:20.281Z,5.89
2023-03-07T16:26:47.373Z,5.74
2023-03-07T16:29:20.429Z,5.61
2023-03-07T16:31:47.127Z,5.95
2023-03-07T16:34:16.031Z,6.01
2023-03-07T16:36:42.963Z,5.32
2023-03-07T16:39:10.648Z,5.26
2023-03-07T16:41:39.285Z,5.45
2023-03-07T16:44:05.639Z,5.53
2023-03-07T16:46:34.717Z,4.93
2023-03-07T16:49:03.904Z,5.13
2023-03-07T16:51:31.062Z,5.35
2023-03-07T16:53:59.656Z,5.40
2023-03-07T16:56:33.150Z,5.35
2023-03-07T16:59:00.708Z,5.30
2023-03-07T17:01:27.412Z,5.57
2023-03-07T17:03:56.317Z,5.46
2023-03-07T17:06:33.625Z,4.43
2023-03-07T17:09:05.818Z,5.59
2023-03-07T17:11:32.705Z,5.52
2023-03-07T17:14:02.809Z,5.43
2023-03-07T17:16:33.378Z,4.63
2023-03-07T17:18:59.738Z,4.87
2023-03-07T17:21:26.401Z,5.30
2023-03-07T17:23:52.830Z,5.58
2023-03-07T17:26:34.303Z,5.53
2023-03-07T17:29:04.528Z,5.24
2023-03-07T17:31:31.074Z,4.89
2023-03-07T17:33:57.477Z,5.27
2023-03-07T17:36:23.934Z,5.52
2023-03-07T17:38:50.357Z,5.11
2023-03-07T17:41:16.924Z,5.37
2023-03-07T17:43:44.468Z,5.45
2023-03-07T17:46:12.118Z,4.53
2023-03-07T17:48:38.596Z,5.15
2023-03-07T17:51:09.459Z,4.65
2023-03-07T17:53:37.079Z,5.18
2023-03-07T17:56:10.789Z,5.06
2023-03-07T17:58:38.448Z,5.07
2023-03-07T18:01:11.054Z,4.54
2023-03-07T18:03:38.608Z,4.86
2023-03-07T18:06:05.653Z,4.89
2023-03-07T18:08:32.332Z,4.20
2023-03-07T18:11:10.727Z,4.48
2023-03-07T18:13:37.832Z,5.02
2023-03-07T18:16:05.881Z,4.97
2023-03-07T18:18:34.740Z,4.82
2023-03-07T18:21:04.755Z,4.39
2023-03-07T18:23:33.078Z,4.95
2023-03-07T18:26:01.636Z,4.46
2023-03-07T18:28:28.818Z,4.75
2023-03-07T18:31:04.758Z,4.57
2023-03-07T18:33:32.336Z,4.63
2023-03-07T18:35:59.304Z,4.83
2023-03-07T18:38:26.442Z,4.74
2023-03-07T18:41:03.829Z,4.11
2023-03-07T18:43:45.788Z,4.40
2023-03-07T18:46:17.791Z,4.63
2023-03-07T18:48:44.820Z,4.48
2023-03-07T18:51:15.169Z,4.70
2023-03-07T18:53:42.606Z,4.36
2023-03-07T18:56:14.137Z,4.27
2023-03-07T18:58:41.865Z,4.60
2023-03-07T19:01:19.923Z,4.74
2023-03-07T19:03:51.294Z,4.64
2023-03-07T19:06:20.373Z,4.36
2023-03-07T19:08:47.277Z,3.62
2023-03-07T19:11:14.635Z,4.55
2023-03-07T19:13:44.399Z,4.66
2023-03-07T19:16:49.579Z,4.02
2023-03-07T19:19:16.153Z,4.33
2023-03-07T19:21:42.840Z,3.91
2023-03-07T19:24:13.378Z,4.61
2023-03-07T19:26:41.670Z,4.12
2023-03-07T19:29:09.770Z,4.50
2023-03-07T19:31:36.484Z,4.37
2023-03-07T19:34:07.020Z,4.85
2023-03-07T19:36:45.672Z,4.06
2023-03-07T19:39:23.348Z,4.71
2023-03-07T19:41:50.050Z,4.43
2023-03-07T19:44:42.974Z,4.68
2023-03-07T19:47:09.536Z,4.63
2023-03-07T19:49:38.281Z,4.28
2023-03-07T19:52:10.258Z,4.43
2023-03-07T19:54:36.765Z,4.49
2023-03-07T19:57:03.373Z,4.93
2023-03-07T19:59:29.754Z,4.67
2023-03-07T20:01:59.855Z,4.76
2023-03-07T20:04:26.377Z,4.86
2023-03-07T20:06:52.975Z,4.29
2023-03-07T20:09:19.581Z,5.25
2023-03-07T20:11:46.672Z,5.27
2023-03-07T20:14:13.536Z,5.32
2023-03-07T20:16:40.678Z,4.75
2023-03-07T20:19:09.534Z,5.41
2023-03-07T20:21:36.897Z,4.58
2023-03-07T20:24:04.708Z,4.92
2023-03-07T20:26:40.694Z,4.33
2023-03-07T20:29:07.912Z,4.80
2023-03-07T20:31:37.521Z,5.41
2023-03-07T20:34:05.736Z,5.20
2023-03-07T20:36:35.013Z,4.84
2023-03-07T20:39:08.132Z,5.44
2023-03-07T20:41:37.542Z,4.69
2023-03-07T20:44:06.214Z,5.49
2023-03-07T20:46:33.737Z,4.56
2023-03-07T20:49:01.604Z,5.48
2023-03-07T20:51:30.647Z,5.32
2023-03-07T20:54:01.417Z,5.36
2023-03-07T20:56:30.255Z,5.35
2023-03-07T20:58:57.898Z,5.35
2023-03-07T21:01:33.666Z,4.65
2023-03-07T21:04:09.273Z,5.40
2023-03-07T21:06:37.450Z,4.53
2023-03-07T21:09:09.955Z,5.26
2023-03-07T21:11:42.256Z,4.90
2023-03-07T21:14:08.814Z,4.96
2023-03-07T21:16:37.422Z,4.42
2023-03-07T21:19:05.728Z,4.69
2023-03-07T21:21:34.265Z,4.33
2023-03-07T21:24:01.050Z,4.86
2023-03-07T21:26:29.944Z,5.41
2023-03-07T21:28:59.903Z,5.43
2023-03-07T21:31:28.919Z,4.32
2023-03-07T21:33:58.669Z,4.91
2023-03-07T21:36:29.299Z,4.88
2023-03-07T21:38:58.726Z,4.87
2023-03-07T21:41:25.558Z,5.27
2023-03-07T21:43:56.107Z,4.67
2023-03-07T21:46:25.187Z,4.47
2023-03-07T21:48:54.794Z,4.37
2023-03-07T21:51:21.430Z,4.77
2023-03-07T21:53:47.914Z,5.23
2023-03-07T21:56:19.487Z,4.91
2023-03-07T21:58:50.235Z,5.28
2023-03-07T22:01:21.933Z,4.27
2023-03-07T22:03:51.566Z,5.33
2023-03-07T22:06:18.229Z,4.87
2023-03-07T22:08:47.853Z,4.60
2023-03-07T22:11:14.424Z,4.98
2023-03-07T22:13:41.959Z,4.66
2023-03-07T22:16:16.667Z,4.97
2023-03-07T22:18:45.323Z,4.93
2023-03-07T22:21:17.297Z,5.15
2023-03-07T22:23:44.429Z,5.26
2023-03-07T22:26:11.790Z,5.21
2023-03-07T22:28:43.954Z,4.34
2023-03-07T22:31:12.757Z,5.15
2023-03-07T22:33:40.910Z,4.48
2023-03-07T22:36:10.994Z,4.44
2023-03-07T22:38:41.660Z,5.17
2023-03-07T22:41:12.115Z,5.11
2023-03-07T22:43:38.951Z,4.47
2023-03-07T22:46:06.269Z,4.15
2023-03-07T22:48:33.642Z,4.74
2023-03-07T22:51:02.844Z,5.17
2023-03-07T22:53:31.215Z,5.35
2023-03-07T22:56:03.287Z,5.30
2023-03-07T22:58:30.598Z,5.31
2023-03-07T23:00:57.225Z,5.25
2023-03-07T23:03:44.144Z,4.93
2023-03-07T23:06:11.986Z,5.30
2023-03-07T23:08:41.799Z,4.53
2023-03-07T23:11:16.463Z,4.97
2023-03-07T23:13:43.482Z,5.40
2023-03-07T23:16:21.756Z,4.76
2023-03-07T23:18:50.676Z,4.60
2023-03-07T23:21:20.162Z,5.07
2023-03-07T23:23:47.068Z,4.92
2023-03-07T23:26:29.294Z,5.23
2023-03-07T23:28:56.136Z,5.13
2023-03-07T23:31:32.248Z,5.38
2023-03-07T23:34:01.413Z,5.30
2023-03-07T23:36:31.459Z,4.86
2023-03-07T23:38:59.812Z,5.42
2023-03-07T23:41:27.224Z,5.04
2023-03-07T23:43:54.886Z,5.28
2023-03-07T23:46:21.891Z,4.71
2023-03-07T23:48:48.391Z,5.44
2023-03-07T23:51:17.611Z,5.24
2023-03-07T23:53:44.171Z,5.16
2023-03-07T23:56:11.733Z,4.83
2023-03-07T23:58:38.501Z,5.22
